sensor_id;sensor_type;location;lat;lon;timestamp;temperature;humidity
15113;DHT22;7657;50.140;7.076;2023-05-17T00:00:07;11.30;99.90
15113;DHT22;7657;50.140;7.076;2023-05-17T00:02:34;11.30;99.90
15113;DHT22;7657;50.140;7.076;2023-05-17T00:05:01;11.30;99.90
15113;DHT22;7657;50.140;7.076;2023-05-17T00:07:28;11.40;99.90
15113;DHT22;7657;50.140;7.076;2023-05-17T00:09:55;11.40;99.90
15113;DHT22;7657;50.140;7.076;2023-05-17T00:12:23;11.20;99.90
15113;DHT22;7657;50.140;7.076;2023-05-17T00:14:50;11.20;99.90
15113;DHT22;7657;50.140;7.076;2023-05-17T00:17:18;11.00;99.90
15113;DHT22;7657;50.140;7.076;2023-05-17T00:19:44;11.20;99.90
15113;DHT22;7657;50.140;7.076;2023-05-17T00:22:11;11.20;99.90
15113;DHT22;7657;50.140;7.076;2023-05-17T00:24:38;11.10;99.90
15113;DHT22;7657;50.140;7.076;2023-05-17T00:27:05;11.10;99.90
15113;DHT22;7657;50.140;7.076;2023-05-17T00:29:34;11.10;99.90
15113;DHT22;7657;50.140;7.076;2023-05-17T00:32:00;11.10;99.90
15113;DHT22;7657;50.140;7.076;2023-05-17T00:34:27;11.20;99.90
15113;DHT22;7657;50.140;7.076;2023-05-17T00:36:54;11.10;99.90
15113;DHT22;7657;50.140;7.076;2023-05-17T00:39:21;11.00;99.90
15113;DHT22;7657;50.140;7.076;2023-05-17T00:41:48;11.00;99.90
15113;DHT22;7657;50.140;7.076;2023-05-17T00:44:15;11.10;99.90
15113;DHT22;7657;50.140;7.076;2023-05-17T00:46:43;11.10;99.90
15113;DHT22;7657;50.140;7.076;2023-05-17T00:49:11;10.90;99.90
15113;DHT22;7657;50.140;7.076;2023-05-17T00:51:38;10.80;99.90
15113;DHT22;7657;50.140;7.076;2023-05-17T00:54:06;10.70;99.90
15113;DHT22;7657;50.140;7.076;2023-05-17T00:56:33;10.50;99.90
15113;DHT22;7657;50.140;7.076;2023-05-17T00:58:59;10.50;99.90
15113;DHT22;7657;50.140;7.076;2023-05-17T01:01:27;10.40;99.90
15113;DHT22;7657;50.140;7.076;2023-05-17T01:03:56;10.40;99.90
15113;DHT22;7657;50.140;7.076;2023-05-17T01:06:23;10.20;99.90
15113;DHT22;7657;50.140;7.076;2023-05-17T01:08:50;10.10;99.90
15113;DHT22;7657;50.140;7.076;2023-05-17T01:11:28;10.30;99.90
15113;DHT22;7657;50.140;7.076;2023-05-17T01:14:04;10.30;99.90
15113;DHT22;7657;50.140;7.076;2023-05-17T01:16:39;10.20;99.90
15113;DHT22;7657;50.140;7.076;2023-05-17T01:19:19;10.30;99.90
15113;DHT22;7657;50.140;7.076;2023-05-17T01:22:03;10.30;99.90
15113;DHT22;7657;50.140;7.076;2023-05-17T01:24:44;10.30;99.90
15113;DHT22;7657;50.140;7.076;2023-05-17T01:27:17;10.40;99.90
15113;DHT22;7657;50.140;7.076;2023-05-17T01:29:46;10.50;99.90
15113;DHT22;7657;50.140;7.076;2023-05-17T01:32:14;10.60;99.90
15113;DHT22;7657;50.140;7.076;2023-05-17T01:34:42;10.60;99.90
15113;DHT22;7657;50.140;7.076;2023-05-17T01:37:09;10.60;99.90
15113;DHT22;7657;50.140;7.076;2023-05-17T01:39:36;10.40;99.90
15113;DHT22;7657;50.140;7.076;2023-05-17T01:42:07;10.50;99.90
15113;DHT22;7657;50.140;7.076;2023-05-17T01:44:44;10.30;99.90
15113;DHT22;7657;50.140;7.076;2023-05-17T01:47:17;10.20;99.90
15113;DHT22;7657;50.140;7.076;2023-05-17T01:49:47;10.20;99.90
15113;DHT22;7657;50.140;7.076;2023-05-17T01:52:18;10.30;99.90
15113;DHT22;7657;50.140;7.076;2023-05-17T01:55:01;10.30;99.90
15113;DHT22;7657;50.140;7.076;2023-05-17T01:57:35;10.50;99.90
15113;DHT22;7657;50.140;7.076;2023-05-17T02:00:05;10.50;99.90
15113;DHT22;7657;50.140;7.076;2023-05-17T02:02:33;10.50;99.90
15113;DHT22;7657;50.140;7.076;2023-05-17T02:05:01;10.50;99.90
15113;DHT22;7657;50.140;7.076;2023-05-17T02:07:28;10.40;99.90
15113;DHT22;7657;50.140;7.076;2023-05-17T02:09:55;10.50;99.90
15113;DHT22;7657;50.140;7.076;2023-05-17T02:12:22;10.40;99.90
15113;DHT22;7657;50.140;7.076;2023-05-17T02:14:49;10.40;99.90
15113;DHT22;7657;50.140;7.076;2023-05-17T02:17:18;10.40;99.90
15113;DHT22;7657;50.140;7.076;2023-05-17T02:19:45;10.40;99.90
15113;DHT22;7657;50.140;7.076;2023-05-17T02:22:11;10.30;99.90
15113;DHT22;7657;50.140;7.076;2023-05-17T02:24:38;10.30;99.90
15113;DHT22;7657;50.140;7.076;2023-05-17T02:27:05;10.20;99.90
15113;DHT22;7657;50.140;7.076;2023-05-17T02:29:32;10.20;99.90
15113;DHT22;7657;50.140;7.076;2023-05-17T02:31:59;10.10;99.90
15113;DHT22;7657;50.140;7.076;2023-05-17T02:34:27;9.90;99.90
15113;DHT22;7657;50.140;7.076;2023-05-17T02:36:54;9.90;99.90
15113;DHT22;7657;50.140;7.076;2023-05-17T02:39:21;9.90;99.90
15113;DHT22;7657;50.140;7.076;2023-05-17T02:41:48;9.80;99.90
15113;DHT22;7657;50.140;7.076;2023-05-17T02:44:15;9.80;99.90
15113;DHT22;7657;50.140;7.076;2023-05-17T02:46:42;9.70;99.90
15113;DHT22;7657;50.140;7.076;2023-05-17T02:49:08;9.80;99.90
15113;DHT22;7657;50.140;7.076;2023-05-17T02:51:37;9.80;99.90
15113;DHT22;7657;50.140;7.076;2023-05-17T02:54:03;9.80;99.90
15113;DHT22;7657;50.140;7.076;2023-05-17T02:56:30;9.80;99.90
15113;DHT22;7657;50.140;7.076;2023-05-17T02:58:57;9.80;99.90
15113;DHT22;7657;50.140;7.076;2023-05-17T03:01:25;9.70;99.90
15113;DHT22;7657;50.140;7.076;2023-05-17T03:03:52;9.70;99.90
15113;DHT22;7657;50.140;7.076;2023-05-17T03:06:19;9.70;99.90
15113;DHT22;7657;50.140;7.076;2023-05-17T03:08:48;9.70;99.90
15113;DHT22;7657;50.140;7.076;2023-05-17T03:11:14;9.60;99.90
15113;DHT22;7657;50.140;7.076;2023-05-17T03:13:41;9.60;99.90
15113;DHT22;7657;50.140;7.076;2023-05-17T03:16:10;9.60;99.90
15113;DHT22;7657;50.140;7.076;2023-05-17T03:18:37;9.60;99.90
15113;DHT22;7657;50.140;7.076;2023-05-17T03:21:04;9.60;99.90
15113;DHT22;7657;50.140;7.076;2023-05-17T03:23:31;9.60;99.90
15113;DHT22;7657;50.140;7.076;2023-05-17T03:25:59;9.60;99.90
15113;DHT22;7657;50.140;7.076;2023-05-17T03:28:26;9.50;99.90
15113;DHT22;7657;50.140;7.076;2023-05-17T03:30:53;9.60;99.90
15113;DHT22;7657;50.140;7.076;2023-05-17T03:33:20;9.60;99.90
15113;DHT22;7657;50.140;7.076;2023-05-17T03:35:47;9.70;99.90
15113;DHT22;7657;50.140;7.076;2023-05-17T03:38:14;9.70;99.90
15113;DHT22;7657;50.140;7.076;2023-05-17T03:40:41;9.80;99.90
15113;DHT22;7657;50.140;7.076;2023-05-17T03:43:09;9.80;99.90
15113;DHT22;7657;50.140;7.076;2023-05-17T03:45:36;9.80;99.90
15113;DHT22;7657;50.140;7.076;2023-05-17T03:48:03;9.70;99.90
15113;DHT22;7657;50.140;7.076;2023-05-17T03:50:30;9.80;99.90
15113;DHT22;7657;50.140;7.076;2023-05-17T03:52:57;9.80;99.90
15113;DHT22;7657;50.140;7.076;2023-05-17T03:55:24;9.90;99.90
15113;DHT22;7657;50.140;7.076;2023-05-17T03:57:51;9.90;99.90
15113;DHT22;7657;50.140;7.076;2023-05-17T04:00:19;9.80;99.90
15113;DHT22;7657;50.140;7.076;2023-05-17T04:02:46;9.70;99.90
15113;DHT22;7657;50.140;7.076;2023-05-17T04:05:13;9.70;99.90
15113;DHT22;7657;50.140;7.076;2023-05-17T04:07:41;9.40;99.90
15113;DHT22;7657;50.140;7.076;2023-05-17T04:10:08;9.20;99.90
15113;DHT22;7657;50.140;7.076;2023-05-17T04:12:35;9.10;99.90
15113;DHT22;7657;50.140;7.076;2023-05-17T04:15:02;9.00;99.90
15113;DHT22;7657;50.140;7.076;2023-05-17T04:17:30;9.10;99.90
15113;DHT22;7657;50.140;7.076;2023-05-17T04:19:57;9.10;99.90
15113;DHT22;7657;50.140;7.076;2023-05-17T04:22:24;9.20;99.90
15113;DHT22;7657;50.140;7.076;2023-05-17T04:24:51;9.40;99.90
15113;DHT22;7657;50.140;7.076;2023-05-17T04:27:18;9.50;99.90
15113;DHT22;7657;50.140;7.076;2023-05-17T04:29:46;9.50;99.90
15113;DHT22;7657;50.140;7.076;2023-05-17T04:32:13;9.40;99.90
15113;DHT22;7657;50.140;7.076;2023-05-17T04:34:41;9.30;99.90
15113;DHT22;7657;50.140;7.076;2023-05-17T04:37:08;9.30;99.90
15113;DHT22;7657;50.140;7.076;2023-05-17T04:39:35;9.30;99.90
15113;DHT22;7657;50.140;7.076;2023-05-17T04:42:02;9.30;99.90
15113;DHT22;7657;50.140;7.076;2023-05-17T04:44:29;9.20;99.90
15113;DHT22;7657;50.140;7.076;2023-05-17T04:46:56;9.10;99.90
15113;DHT22;7657;50.140;7.076;2023-05-17T04:49:23;9.30;99.90
15113;DHT22;7657;50.140;7.076;2023-05-17T04:51:52;9.40;99.90
15113;DHT22;7657;50.140;7.076;2023-05-17T04:54:18;9.50;99.90
15113;DHT22;7657;50.140;7.076;2023-05-17T04:56:45;9.60;99.90
15113;DHT22;7657;50.140;7.076;2023-05-17T04:59:12;9.50;99.90
15113;DHT22;7657;50.140;7.076;2023-05-17T05:01:39;9.40;99.90
15113;DHT22;7657;50.140;7.076;2023-05-17T05:04:06;9.40;99.90
15113;DHT22;7657;50.140;7.076;2023-05-17T05:06:33;9.50;99.90
15113;DHT22;7657;50.140;7.076;2023-05-17T05:09:01;9.70;99.90
15113;DHT22;7657;50.140;7.076;2023-05-17T05:11:28;9.80;99.90
15113;DHT22;7657;50.140;7.076;2023-05-17T05:13:55;9.80;99.90
15113;DHT22;7657;50.140;7.076;2023-05-17T05:16:23;10.00;99.90
15113;DHT22;7657;50.140;7.076;2023-05-17T05:18:50;10.10;99.90
15113;DHT22;7657;50.140;7.076;2023-05-17T05:21:17;10.10;99.90
15113;DHT22;7657;50.140;7.076;2023-05-17T05:23:43;10.20;99.90
15113;DHT22;7657;50.140;7.076;2023-05-17T05:26:12;10.10;99.90
15113;DHT22;7657;50.140;7.076;2023-05-17T05:28:38;10.20;99.90
15113;DHT22;7657;50.140;7.076;2023-05-17T05:31:05;10.20;99.90
15113;DHT22;7657;50.140;7.076;2023-05-17T05:33:32;10.10;99.90
15113;DHT22;7657;50.140;7.076;2023-05-17T05:35:59;10.10;99.90
15113;DHT22;7657;50.140;7.076;2023-05-17T05:38:26;10.10;99.90
15113;DHT22;7657;50.140;7.076;2023-05-17T05:40:53;10.10;99.90
15113;DHT22;7657;50.140;7.076;2023-05-17T05:43:21;10.00;99.90
15113;DHT22;7657;50.140;7.076;2023-05-17T05:45:48;10.10;99.90
15113;DHT22;7657;50.140;7.076;2023-05-17T05:48:15;10.10;99.90
15113;DHT22;7657;50.140;7.076;2023-05-17T05:50:43;10.10;99.90
15113;DHT22;7657;50.140;7.076;2023-05-17T05:53:10;10.10;99.90
15113;DHT22;7657;50.140;7.076;2023-05-17T05:55:39;10.20;99.90
15113;DHT22;7657;50.140;7.076;2023-05-17T05:58:06;10.20;99.90
15113;DHT22;7657;50.140;7.076;2023-05-17T06:00:35;10.30;99.90
15113;DHT22;7657;50.140;7.076;2023-05-17T06:03:02;10.30;99.90
15113;DHT22;7657;50.140;7.076;2023-05-17T06:05:29;10.30;99.90
15113;DHT22;7657;50.140;7.076;2023-05-17T06:07:56;10.10;99.90
15113;DHT22;7657;50.140;7.076;2023-05-17T06:10:23;10.10;99.90
15113;DHT22;7657;50.140;7.076;2023-05-17T06:12:49;10.20;99.90
15113;DHT22;7657;50.140;7.076;2023-05-17T06:15:17;10.20;99.90
15113;DHT22;7657;50.140;7.076;2023-05-17T06:17:45;10.30;99.90
15113;DHT22;7657;50.140;7.076;2023-05-17T06:20:12;10.30;99.90
15113;DHT22;7657;50.140;7.076;2023-05-17T06:22:39;10.40;99.90
15113;DHT22;7657;50.140;7.076;2023-05-17T06:25:06;10.40;99.90
15113;DHT22;7657;50.140;7.076;2023-05-17T06:27:34;10.30;99.90
15113;DHT22;7657;50.140;7.076;2023-05-17T06:30:02;10.30;99.90
15113;DHT22;7657;50.140;7.076;2023-05-17T06:32:29;10.10;99.90
15113;DHT22;7657;50.140;7.076;2023-05-17T06:34:57;10.10;99.90
15113;DHT22;7657;50.140;7.076;2023-05-17T06:37:24;10.30;99.90
15113;DHT22;7657;50.140;7.076;2023-05-17T06:39:51;10.40;99.90
15113;DHT22;7657;50.140;7.076;2023-05-17T06:42:18;10.50;99.90
15113;DHT22;7657;50.140;7.076;2023-05-17T06:44:45;10.50;99.90
15113;DHT22;7657;50.140;7.076;2023-05-17T06:47:12;10.50;99.90
15113;DHT22;7657;50.140;7.076;2023-05-17T06:49:38;10.60;99.90
15113;DHT22;7657;50.140;7.076;2023-05-17T06:52:07;10.60;99.90
15113;DHT22;7657;50.140;7.076;2023-05-17T06:54:33;10.60;99.90
15113;DHT22;7657;50.140;7.076;2023-05-17T06:57:00;10.70;99.90
15113;DHT22;7657;50.140;7.076;2023-05-17T06:59:27;10.70;99.90
15113;DHT22;7657;50.140;7.076;2023-05-17T07:01:54;10.70;99.90
15113;DHT22;7657;50.140;7.076;2023-05-17T07:04:21;10.70;99.90
15113;DHT22;7657;50.140;7.076;2023-05-17T07:06:48;10.80;99.90
15113;DHT22;7657;50.140;7.076;2023-05-17T07:09:17;10.70;99.90
15113;DHT22;7657;50.140;7.076;2023-05-17T07:11:44;10.70;99.90
15113;DHT22;7657;50.140;7.076;2023-05-17T07:14:11;10.70;99.90
15113;DHT22;7657;50.140;7.076;2023-05-17T07:16:37;10.70;99.90
15113;DHT22;7657;50.140;7.076;2023-05-17T07:19:04;10.80;99.90
15113;DHT22;7657;50.140;7.076;2023-05-17T07:21:32;10.80;99.90
15113;DHT22;7657;50.140;7.076;2023-05-17T07:23:59;10.80;99.90
15113;DHT22;7657;50.140;7.076;2023-05-17T07:26:27;10.80;99.90
15113;DHT22;7657;50.140;7.076;2023-05-17T07:28:54;10.90;99.90
15113;DHT22;7657;50.140;7.076;2023-05-17T07:31:21;10.90;99.90
15113;DHT22;7657;50.140;7.076;2023-05-17T07:33:48;11.00;99.90
15113;DHT22;7657;50.140;7.076;2023-05-17T07:36:15;11.10;99.90
15113;DHT22;7657;50.140;7.076;2023-05-17T07:38:42;11.10;99.90
15113;DHT22;7657;50.140;7.076;2023-05-17T07:41:10;11.20;99.90
15113;DHT22;7657;50.140;7.076;2023-05-17T07:43:39;11.30;99.90
15113;DHT22;7657;50.140;7.076;2023-05-17T07:46:06;11.30;99.90
15113;DHT22;7657;50.140;7.076;2023-05-17T07:48:33;11.30;99.90
15113;DHT22;7657;50.140;7.076;2023-05-17T07:51:00;11.30;99.90
15113;DHT22;7657;50.140;7.076;2023-05-17T07:53:27;11.30;99.90
15113;DHT22;7657;50.140;7.076;2023-05-17T07:55:54;11.30;99.90
15113;DHT22;7657;50.140;7.076;2023-05-17T07:58:21;11.20;99.90
15113;DHT22;7657;50.140;7.076;2023-05-17T08:00:49;11.20;99.90
15113;DHT22;7657;50.140;7.076;2023-05-17T08:03:16;11.30;99.90
15113;DHT22;7657;50.140;7.076;2023-05-17T08:05:43;11.30;99.90
15113;DHT22;7657;50.140;7.076;2023-05-17T08:08:09;11.30;99.90
15113;DHT22;7657;50.140;7.076;2023-05-17T08:10:36;11.40;99.90
15113;DHT22;7657;50.140;7.076;2023-05-17T08:13:05;11.40;99.90
15113;DHT22;7657;50.140;7.076;2023-05-17T08:15:32;11.20;99.90
15113;DHT22;7657;50.140;7.076;2023-05-17T08:18:00;11.20;99.90
15113;DHT22;7657;50.140;7.076;2023-05-17T08:20:27;11.30;99.90
15113;DHT22;7657;50.140;7.076;2023-05-17T08:22:54;11.40;99.90
15113;DHT22;7657;50.140;7.076;2023-05-17T08:25:21;11.40;99.90
15113;DHT22;7657;50.140;7.076;2023-05-17T08:27:47;11.50;99.90
15113;DHT22;7657;50.140;7.076;2023-05-17T08:30:14;11.60;99.90
15113;DHT22;7657;50.140;7.076;2023-05-17T08:32:41;11.60;99.90
15113;DHT22;7657;50.140;7.076;2023-05-17T08:35:11;11.60;99.90
15113;DHT22;7657;50.140;7.076;2023-05-17T08:37:38;11.60;99.90
15113;DHT22;7657;50.140;7.076;2023-05-17T08:40:06;11.60;99.90
15113;DHT22;7657;50.140;7.076;2023-05-17T08:42:34;11.70;99.90
15113;DHT22;7657;50.140;7.076;2023-05-17T08:45:02;11.70;99.90
15113;DHT22;7657;50.140;7.076;2023-05-17T08:47:30;11.70;99.90
15113;DHT22;7657;50.140;7.076;2023-05-17T08:49:58;11.80;99.90
15113;DHT22;7657;50.140;7.076;2023-05-17T08:52:30;11.80;99.90
15113;DHT22;7657;50.140;7.076;2023-05-17T08:54:58;11.90;99.90
15113;DHT22;7657;50.140;7.076;2023-05-17T08:57:27;11.90;99.90
15113;DHT22;7657;50.140;7.076;2023-05-17T08:59:57;11.90;99.90
15113;DHT22;7657;50.140;7.076;2023-05-17T09:02:25;11.90;99.90
15113;DHT22;7657;50.140;7.076;2023-05-17T09:04:53;11.90;99.90
15113;DHT22;7657;50.140;7.076;2023-05-17T09:07:21;11.90;99.90
15113;DHT22;7657;50.140;7.076;2023-05-17T09:09:51;11.90;99.90
15113;DHT22;7657;50.140;7.076;2023-05-17T09:12:18;12.00;99.90
15113;DHT22;7657;50.140;7.076;2023-05-17T09:14:45;12.00;99.90
15113;DHT22;7657;50.140;7.076;2023-05-17T09:17:14;12.00;99.90
15113;DHT22;7657;50.140;7.076;2023-05-17T09:19:42;11.90;99.90
15113;DHT22;7657;50.140;7.076;2023-05-17T09:22:12;11.90;99.90
15113;DHT22;7657;50.140;7.076;2023-05-17T09:24:40;11.80;99.90
15113;DHT22;7657;50.140;7.076;2023-05-17T09:27:13;11.70;99.90
15113;DHT22;7657;50.140;7.076;2023-05-17T09:29:42;11.80;99.90
15113;DHT22;7657;50.140;7.076;2023-05-17T09:32:13;11.80;99.90
15113;DHT22;7657;50.140;7.076;2023-05-17T09:34:41;11.90;99.90
15113;DHT22;7657;50.140;7.076;2023-05-17T09:37:12;11.90;99.90
15113;DHT22;7657;50.140;7.076;2023-05-17T09:39:40;12.00;99.90
15113;DHT22;7657;50.140;7.076;2023-05-17T09:42:10;12.00;99.90
15113;DHT22;7657;50.140;7.076;2023-05-17T09:44:47;12.10;99.90
15113;DHT22;7657;50.140;7.076;2023-05-17T09:47:25;12.10;99.90
15113;DHT22;7657;50.140;7.076;2023-05-17T09:49:54;12.10;99.90
15113;DHT22;7657;50.140;7.076;2023-05-17T09:52:23;12.20;99.90
15113;DHT22;7657;50.140;7.076;2023-05-17T09:54:53;12.30;99.90
15113;DHT22;7657;50.140;7.076;2023-05-17T09:57:25;12.30;99.90
15113;DHT22;7657;50.140;7.076;2023-05-17T09:59:55;12.10;99.90
15113;DHT22;7657;50.140;7.076;2023-05-17T10:02:26;12.10;99.90
15113;DHT22;7657;50.140;7.076;2023-05-17T10:04:55;12.10;99.90
15113;DHT22;7657;50.140;7.076;2023-05-17T10:07:24;12.10;99.90
15113;DHT22;7657;50.140;7.076;2023-05-17T10:09:53;12.10;99.90
15113;DHT22;7657;50.140;7.076;2023-05-17T10:12:26;11.90;99.90
15113;DHT22;7657;50.140;7.076;2023-05-17T10:14:54;11.90;99.90
15113;DHT22;7657;50.140;7.076;2023-05-17T10:17:25;12.00;99.90
15113;DHT22;7657;50.140;7.076;2023-05-17T10:19:54;12.10;99.90
15113;DHT22;7657;50.140;7.076;2023-05-17T10:22:21;12.20;99.90
15113;DHT22;7657;50.140;7.076;2023-05-17T10:24:49;12.10;99.90
15113;DHT22;7657;50.140;7.076;2023-05-17T10:27:16;12.20;99.90
15113;DHT22;7657;50.140;7.076;2023-05-17T10:29:45;12.20;99.90
15113;DHT22;7657;50.140;7.076;2023-05-17T10:32:13;12.40;99.90
15113;DHT22;7657;50.140;7.076;2023-05-17T10:34:42;12.60;99.90
15113;DHT22;7657;50.140;7.076;2023-05-17T10:37:09;12.60;99.90
15113;DHT22;7657;50.140;7.076;2023-05-17T10:39:36;12.50;99.90
15113;DHT22;7657;50.140;7.076;2023-05-17T10:42:06;12.40;99.90
15113;DHT22;7657;50.140;7.076;2023-05-17T10:44:34;12.40;99.90
15113;DHT22;7657;50.140;7.076;2023-05-17T10:47:03;12.60;99.90
15113;DHT22;7657;50.140;7.076;2023-05-17T10:49:33;12.70;99.90
15113;DHT22;7657;50.140;7.076;2023-05-17T10:52:11;12.80;99.90
15113;DHT22;7657;50.140;7.076;2023-05-17T10:54:40;12.90;99.90
15113;DHT22;7657;50.140;7.076;2023-05-17T10:57:07;13.00;99.90
15113;DHT22;7657;50.140;7.076;2023-05-17T10:59:55;13.00;99.90
15113;DHT22;7657;50.140;7.076;2023-05-17T11:02:25;12.90;99.90
15113;DHT22;7657;50.140;7.076;2023-05-17T11:04:52;12.90;99.90
15113;DHT22;7657;50.140;7.076;2023-05-17T11:07:25;12.90;99.90
15113;DHT22;7657;50.140;7.076;2023-05-17T11:10:00;13.00;99.90
15113;DHT22;7657;50.140;7.076;2023-05-17T11:12:32;13.00;99.90
15113;DHT22;7657;50.140;7.076;2023-05-17T11:15:03;13.10;99.90
15113;DHT22;7657;50.140;7.076;2023-05-17T11:17:36;13.00;99.90
15113;DHT22;7657;50.140;7.076;2023-05-17T11:20:29;13.00;99.90
15113;DHT22;7657;50.140;7.076;2023-05-17T11:22:58;13.00;99.90
15113;DHT22;7657;50.140;7.076;2023-05-17T11:25:27;13.10;99.90
15113;DHT22;7657;50.140;7.076;2023-05-17T11:27:54;13.20;99.90
15113;DHT22;7657;50.140;7.076;2023-05-17T11:30:23;13.10;99.90
15113;DHT22;7657;50.140;7.076;2023-05-17T11:32:56;13.10;99.90
15113;DHT22;7657;50.140;7.076;2023-05-17T11:35:26;13.20;99.90
15113;DHT22;7657;50.140;7.076;2023-05-17T11:38:10;13.10;99.90
15113;DHT22;7657;50.140;7.076;2023-05-17T11:40:39;13.10;99.90
15113;DHT22;7657;50.140;7.076;2023-05-17T11:43:10;13.20;99.90
15113;DHT22;7657;50.140;7.076;2023-05-17T11:45:45;13.20;99.90
15113;DHT22;7657;50.140;7.076;2023-05-17T11:48:15;13.30;99.90
15113;DHT22;7657;50.140;7.076;2023-05-17T11:50:44;13.30;99.90
15113;DHT22;7657;50.140;7.076;2023-05-17T11:53:11;13.40;99.90
15113;DHT22;7657;50.140;7.076;2023-05-17T11:55:39;13.40;99.90
15113;DHT22;7657;50.140;7.076;2023-05-17T11:58:07;13.50;99.90
15113;DHT22;7657;50.140;7.076;2023-05-17T12:00:35;13.50;99.90
15113;DHT22;7657;50.140;7.076;2023-05-17T12:03:21;13.50;99.90
15113;DHT22;7657;50.140;7.076;2023-05-17T12:05:50;13.50;99.90
15113;DHT22;7657;50.140;7.076;2023-05-17T12:08:19;13.50;99.90
15113;DHT22;7657;50.140;7.076;2023-05-17T12:10:49;13.60;99.90
15113;DHT22;7657;50.140;7.076;2023-05-17T12:13:16;13.60;99.90
15113;DHT22;7657;50.140;7.076;2023-05-17T12:15:45;13.70;99.90
15113;DHT22;7657;50.140;7.076;2023-05-17T12:18:13;13.70;99.90
15113;DHT22;7657;50.140;7.076;2023-05-17T12:20:55;13.70;99.90
15113;DHT22;7657;50.140;7.076;2023-05-17T12:23:30;13.70;99.90
15113;DHT22;7657;50.140;7.076;2023-05-17T12:26:05;13.70;99.90
15113;DHT22;7657;50.140;7.076;2023-05-17T12:28:33;13.80;99.90
15113;DHT22;7657;50.140;7.076;2023-05-17T12:31:01;14.00;99.90
15113;DHT22;7657;50.140;7.076;2023-05-17T12:33:33;14.00;99.90
15113;DHT22;7657;50.140;7.076;2023-05-17T12:36:03;14.10;99.90
15113;DHT22;7657;50.140;7.076;2023-05-17T12:38:31;14.20;99.90
15113;DHT22;7657;50.140;7.076;2023-05-17T12:41:00;14.30;99.90
15113;DHT22;7657;50.140;7.076;2023-05-17T12:43:27;14.40;99.90
15113;DHT22;7657;50.140;7.076;2023-05-17T12:46:02;14.50;99.90
15113;DHT22;7657;50.140;7.076;2023-05-17T12:48:29;14.60;99.90
15113;DHT22;7657;50.140;7.076;2023-05-17T12:50:56;14.80;99.90
15113;DHT22;7657;50.140;7.076;2023-05-17T12:53:33;15.00;99.90
15113;DHT22;7657;50.140;7.076;2023-05-17T12:56:01;15.20;99.90
15113;DHT22;7657;50.140;7.076;2023-05-17T12:58:27;15.40;99.90
15113;DHT22;7657;50.140;7.076;2023-05-17T13:00:59;15.50;99.90
15113;DHT22;7657;50.140;7.076;2023-05-17T13:03:26;15.70;99.90
15113;DHT22;7657;50.140;7.076;2023-05-17T13:06:01;15.80;99.90
15113;DHT22;7657;50.140;7.076;2023-05-17T13:08:30;16.00;99.90
15113;DHT22;7657;50.140;7.076;2023-05-17T13:11:08;16.10;99.90
15113;DHT22;7657;50.140;7.076;2023-05-17T13:13:36;16.30;99.90
15113;DHT22;7657;50.140;7.076;2023-05-17T13:16:03;16.50;99.90
15113;DHT22;7657;50.140;7.076;2023-05-17T13:18:30;16.40;99.90
15113;DHT22;7657;50.140;7.076;2023-05-17T13:21:00;16.60;99.90
15113;DHT22;7657;50.140;7.076;2023-05-17T13:23:29;16.30;99.90
15113;DHT22;7657;50.140;7.076;2023-05-17T13:25:56;16.40;99.90
15113;DHT22;7657;50.140;7.076;2023-05-17T13:28:23;16.70;99.90
15113;DHT22;7657;50.140;7.076;2023-05-17T13:30:52;16.60;99.90
15113;DHT22;7657;50.140;7.076;2023-05-17T13:33:18;16.70;99.90
15113;DHT22;7657;50.140;7.076;2023-05-17T13:35:45;16.80;99.90
15113;DHT22;7657;50.140;7.076;2023-05-17T13:38:12;17.00;99.90
15113;DHT22;7657;50.140;7.076;2023-05-17T13:40:40;17.30;99.90
15113;DHT22;7657;50.140;7.076;2023-05-17T13:43:07;17.30;99.90
15113;DHT22;7657;50.140;7.076;2023-05-17T13:45:35;17.50;99.70
15113;DHT22;7657;50.140;7.076;2023-05-17T13:48:02;17.50;98.20
15113;DHT22;7657;50.140;7.076;2023-05-17T13:50:29;17.50;97.50
15113;DHT22;7657;50.140;7.076;2023-05-17T13:52:56;17.70;97.40
15113;DHT22;7657;50.140;7.076;2023-05-17T13:55:24;18.00;96.60
15113;DHT22;7657;50.140;7.076;2023-05-17T13:57:52;18.00;98.00
15113;DHT22;7657;50.140;7.076;2023-05-17T14:00:20;18.20;98.60
15113;DHT22;7657;50.140;7.076;2023-05-17T14:02:47;17.80;97.60
15113;DHT22;7657;50.140;7.076;2023-05-17T14:05:14;17.80;97.70
15113;DHT22;7657;50.140;7.076;2023-05-17T14:07:40;18.00;97.10
15113;DHT22;7657;50.140;7.076;2023-05-17T14:10:09;18.10;95.30
15113;DHT22;7657;50.140;7.076;2023-05-17T14:12:37;18.40;94.90
15113;DHT22;7657;50.140;7.076;2023-05-17T14:15:07;18.70;94.00
15113;DHT22;7657;50.140;7.076;2023-05-17T14:17:35;18.90;93.60
15113;DHT22;7657;50.140;7.076;2023-05-17T14:20:02;18.80;93.80
15113;DHT22;7657;50.140;7.076;2023-05-17T14:22:29;18.90;93.00
15113;DHT22;7657;50.140;7.076;2023-05-17T14:24:56;19.40;93.70
15113;DHT22;7657;50.140;7.076;2023-05-17T14:27:23;19.60;90.80
15113;DHT22;7657;50.140;7.076;2023-05-17T14:29:50;19.40;91.10
15113;DHT22;7657;50.140;7.076;2023-05-17T14:32:18;19.60;92.30
15113;DHT22;7657;50.140;7.076;2023-05-17T14:34:45;19.90;92.50
15113;DHT22;7657;50.140;7.076;2023-05-17T14:37:12;20.10;91.00
15113;DHT22;7657;50.140;7.076;2023-05-17T14:39:39;20.10;90.60
15113;DHT22;7657;50.140;7.076;2023-05-17T14:42:06;19.80;90.10
15113;DHT22;7657;50.140;7.076;2023-05-17T14:44:33;19.50;84.80
15113;DHT22;7657;50.140;7.076;2023-05-17T14:47:03;19.70;88.30
15113;DHT22;7657;50.140;7.076;2023-05-17T14:49:32;20.00;86.30
15113;DHT22;7657;50.140;7.076;2023-05-17T14:51:59;19.90;86.40
15113;DHT22;7657;50.140;7.076;2023-05-17T14:54:26;20.10;84.20
15113;DHT22;7657;50.140;7.076;2023-05-17T14:56:55;20.60;83.90
15113;DHT22;7657;50.140;7.076;2023-05-17T14:59:22;20.70;82.10
15113;DHT22;7657;50.140;7.076;2023-05-17T15:01:50;20.60;80.10
15113;DHT22;7657;50.140;7.076;2023-05-17T15:04:17;20.80;75.00
15113;DHT22;7657;50.140;7.076;2023-05-17T15:06:45;20.50;75.30
15113;DHT22;7657;50.140;7.076;2023-05-17T15:09:12;20.50;78.80
15113;DHT22;7657;50.140;7.076;2023-05-17T15:11:42;20.90;78.40
15113;DHT22;7657;50.140;7.076;2023-05-17T15:14:09;20.40;76.80
15113;DHT22;7657;50.140;7.076;2023-05-17T15:16:36;20.30;79.00
15113;DHT22;7657;50.140;7.076;2023-05-17T15:19:03;20.80;77.10
15113;DHT22;7657;50.140;7.076;2023-05-17T15:21:30;20.80;75.50
15113;DHT22;7657;50.140;7.076;2023-05-17T15:23:58;21.10;75.40
15113;DHT22;7657;50.140;7.076;2023-05-17T15:26:25;21.70;73.00
15113;DHT22;7657;50.140;7.076;2023-05-17T15:28:52;22.00;74.00
15113;DHT22;7657;50.140;7.076;2023-05-17T15:31:19;22.70;74.60
15113;DHT22;7657;50.140;7.076;2023-05-17T15:33:48;22.30;70.20
15113;DHT22;7657;50.140;7.076;2023-05-17T15:36:15;22.10;73.00
15113;DHT22;7657;50.140;7.076;2023-05-17T15:38:42;21.30;69.50
15113;DHT22;7657;50.140;7.076;2023-05-17T15:41:12;20.80;70.40
15113;DHT22;7657;50.140;7.076;2023-05-17T15:43:39;20.70;70.90
15113;DHT22;7657;50.140;7.076;2023-05-17T15:46:06;21.10;70.90
15113;DHT22;7657;50.140;7.076;2023-05-17T15:48:33;21.20;70.80
15113;DHT22;7657;50.140;7.076;2023-05-17T15:51:01;21.60;70.60
15113;DHT22;7657;50.140;7.076;2023-05-17T15:53:28;21.80;70.40
15113;DHT22;7657;50.140;7.076;2023-05-17T15:55:55;22.10;71.20